createdAt,value
2022-11-08T00:02:27.710Z,10.34
2022-11-08T00:17:32.018Z,10.47
2022-11-08T00:32:35.385Z,10.57
2022-11-08T00:47:38.835Z,10.63
2022-11-08T01:02:41.897Z,10.66
2022-11-08T01:17:45.009Z,10.50
2022-11-08T01:32:48.575Z,10.33
2022-11-08T01:47:51.771Z,10.28
2022-11-08T02:03:01.452Z,10.28
2022-11-08T02:18:04.900Z,10.27
2022-11-08T02:33:22.475Z,10.38
2022-11-08T02:48:26.938Z,10.36
2022-11-08T03:03:30.098Z,10.37
2022-11-08T03:18:33.244Z,10.45
2022-11-08T03:33:36.673Z,10.53
2022-11-08T03:48:40.013Z,10.56
2022-11-08T04:03:43.350Z,10.57
2022-11-08T04:19:05.103Z,10.62
2022-11-08T04:34:08.867Z,10.62
2022-11-08T04:49:12.130Z,10.56
2022-11-08T05:04:15.226Z,10.50
2022-11-08T05:19:38.261Z,10.53
2022-11-08T05:34:41.631Z,10.66
2022-11-08T05:49:45.107Z,10.74
2022-11-08T06:04:49.354Z,10.82
2022-11-08T06:19:53.086Z,10.87
2022-11-08T06:34:56.553Z,10.95
2022-11-08T06:49:59.642Z,11.07
2022-11-08T07:05:02.784Z,11.14
2022-11-08T07:20:07.256Z,11.24
2022-11-08T07:35:10.535Z,11.38
2022-11-08T07:50:17.798Z,11.67
2022-11-08T08:05:21.533Z,11.75
2022-11-08T08:20:24.979Z,12.24
2022-11-08T08:35:28.210Z,13.02
2022-11-08T08:50:33.268Z,13.11
2022-11-08T09:05:38.389Z,13.11
2022-11-08T09:20:44.137Z,13.93
2022-11-08T09:35:49.186Z,14.76
2022-11-08T09:50:55.061Z,15.22
2022-11-08T10:06:37.425Z,16.03
2022-11-08T10:21:54.327Z,16.51
2022-11-08T10:37:09.075Z,16.93
2022-11-08T10:52:12.681Z,17.58
2022-11-08T11:07:57.588Z,17.79
2022-11-08T11:23:05.181Z,18.07
2022-11-08T11:38:22.312Z,17.98
2022-11-08T11:53:33.192Z,18.42
2022-11-08T12:08:54.628Z,18.39
2022-11-08T12:24:20.094Z,18.98
2022-11-08T12:39:24.211Z,19.43
2022-11-08T12:54:40.119Z,19.72
2022-11-08T13:09:55.639Z,22.60
2022-11-08T13:25:35.395Z,24.88
2022-11-08T13:41:10.050Z,24.17
2022-11-08T13:56:13.406Z,23.98
2022-11-08T14:11:30.198Z,20.69
2022-11-08T14:26:34.659Z,18.40
2022-11-08T14:41:39.536Z,17.13
2022-11-08T14:56:45.274Z,16.73
2022-11-08T15:11:53.486Z,15.75
2022-11-08T15:27:11.172Z,15.14
2022-11-08T15:42:17.125Z,14.75
2022-11-08T15:57:20.580Z,14.30
2022-11-08T16:12:23.891Z,14.00
2022-11-08T16:27:27.745Z,13.75
2022-11-08T16:42:31.209Z,13.49
2022-11-08T16:57:35.719Z,13.28
2022-11-08T17:12:39.380Z,13.04
2022-11-08T17:27:44.124Z,12.88
2022-11-08T17:42:47.340Z,12.67
2022-11-08T17:57:51.473Z,12.60
2022-11-08T18:12:56.551Z,12.47
2022-11-08T18:28:00.581Z,12.39
2022-11-08T18:43:03.953Z,12.31
2022-11-08T18:58:07.153Z,12.19
2022-11-08T19:13:12.653Z,12.06
2022-11-08T19:28:16.489Z,12.00
2022-11-08T19:43:21.891Z,11.93
2022-11-08T19:58:26.199Z,11.83
2022-11-08T20:13:31.085Z,11.79
2022-11-08T20:28:36.304Z,11.75
2022-11-08T20:43:47.753Z,11.71
2022-11-08T20:58:53.065Z,11.75
2022-11-08T21:13:56.568Z,11.74
2022-11-08T21:29:00.206Z,11.71
2022-11-08T21:44:03.959Z,11.65
2022-11-08T21:59:07.179Z,11.57
2022-11-08T22:14:10.521Z,11.55
2022-11-08T22:29:14.684Z,11.52
2022-11-08T22:44:19.059Z,11.47
2022-11-08T22:59:22.298Z,11.42
2022-11-08T23:14:43.907Z,11.40
2022-11-08T23:30:06.336Z,11.31
2022-11-08T23:45:10.139Z,11.29
